Forum - i mitici sud

tutti gli utenti del gruppo possono partecipare le discussione con riferimento a sesso o non conforme a chatta.it verranno imossi

Amministratore
F.ranco52 23/12/2019 ore 08:55 Quota

(nessuno) Nowcasting Lunedì 23 Dicembre 2019

Buongiorno a tutti


Notizie Meteo dell'Italia da il Meteo .It


http://ilMeteo.It


la Situazione Italiana vista dal Sat









il Radar Europeo









Brindi

METAR LIBR 230650Z 27007KT CAVOK 10/05 Q0998=

METAR di Brindisi del 23 alle 6,50z

Vento da 270° W 7 nodi (12,962 km) Visibilità 10000 m
Base delle Nubi e Visibilità OK
Temp 10°C Dew 5°C Ur 70°C Ur 0998

Brindisi

TAF LIBR 230500Z 2306/2406 32018G30KT 9999 SCT020 TEMPO 2306/2312 4000 SHRA=

le TAF di Brindisi delle 5z Previsioni dalle 6z alle 6z del 24

Vento da 320° N NW 18 nodi (33,336 km)
Raffiche da 30 nodi (55,56 km) Visibilità 10000 m
Copertura 3-4 ottavi da 2000 piedi (609,6 m)
il Tempo Varierà dalle 6z alle 12z
Visibilità 4000 m , Rovesci di Pioggia


Gioia del Colle

METAR LIBV 230655Z 35002KT CAVOK 06/04 Q0997 RMK BKN FEW180 BKN250 VIS MIN 9999 WIND THR32 36004KT WIND THR14 34002KT BLU=

METAR di Gioia del Colle del 23 alle 6,55z

Vento da 350° N NW 2 nodi (3,704 km) Visibilità 10000 m
Base delle Nubi e Visibilità OK
Temp 6°C Dew 4°C Ur 86% hPa 0997
Aumento della Nuvolosità a 5-7 ottavi
Copertura 1-2 ottavi da 18000 piedi (5486,4 m)
Copertura 5-7 ottavi da 25000 piedi (7620 m)
Visibilità Minima 10000 m

Gioia del Colle

TAF LIBV 230500Z 2306/2315 30010KT 9999 FEW030 BECMG 2310/2312 30020G30KT=

le TAF di Gioia del Colle delle 5z Previsioni dalle 6z alloe 15z

Vento da 300° W NW 10 nodi (18,52 km) Visibilità 10000 m
Copertura 1-2 ottavi da 3000 piedi (914,4 m)
le Condizioni Diverranno fra le 10z e le 12z
Vento da 300° W NW 20 nodi (37,04 km)
Raffiche da 30 nodi (55,56 km)
2649790
Buongiorno a tutti Notizie Meteo dell'Italia da il Meteo .It http://ilMeteo.It la Situazione Italiana vista dal Sat « immagine »...
Discussione
23/12/2019 08:55:32
none
  • mi piace
    iLikeIt
    PublicVote

Vuoi partecipare anche tu a questa discussione?

Rispondi per lasciare il tuo messaggio in questa discussione